Time,TemperatureF,DewpointF,PressureIn,WindDirection,WindDirectionDegrees,WindSpeedMPH,WindSpeedGustMPH,Humidity,HourlyPrecipIn,Conditions,Clouds,dailyrainin,SoftwareType,DateUTC
2013-12-18 00:22:00,34.0,30.0,-100.00,North,-999,-999.0,-999.0,87,0.00,,,-99.99,,2013-12-18 06:22:00,
2013-12-18 00:52:00,33.0,30.0,-100.00,North,-999,-999.0,-999.0,88,0.00,,,-99.99,,2013-12-18 06:52:00,
2013-12-18 01:22:00,32.0,29.0,-100.00,North,-999,-999.0,-999.0,89,0.00,,,-99.99,,2013-12-18 07:22:00,
2013-12-18 01:52:00,31.0,29.0,-100.00,North,-999,-999.0,-999.0,90,0.00,,,-99.99,,2013-12-18 07:52:00,
2013-12-18 02:22:00,31.0,29.0,-100.00,North,-999,-999.0,-999.0,91,0.00,,,-99.99,,2013-12-18 08:22:00,
2013-12-18 02:52:00,31.0,29.0,-100.00,North,-999,-999.0,-999.0,92,0.00,,,-99.99,,2013-12-18 08:52:00,
2013-12-18 03:22:00,30.0,28.0,-100.00,North,-999,-999.0,-999.0,92,0.00,,,-99.99,,2013-12-18 09:22:00,
2013-12-18 03:53:00,30.0,28.0,-100.00,North,-999,-999.0,-999.0,93,0.00,,,-99.99,,2013-12-18 09:53:00,
2013-12-18 04:23:00,29.0,27.0,-100.00,North,-999,-999.0,-999.0,93,0.00,,,-99.99,,2013-12-18 10:23:00,
2013-12-18 04:52:00,29.0,27.0,-100.00,North,-999,-999.0,-999.0,94,0.00,,,-99.99,,2013-12-18 10:52:00,
2013-12-18 05:23:00,28.0,27.0,-100.00,North,-999,-999.0,-999.0,94,0.00,,,-99.99,,2013-12-18 11:23:00,
2013-12-18 05:53:00,28.0,27.0,-100.00,North,-999,-999.0,-999.0,95,0.00,,,-99.99,,2013-12-18 11:53:00,
2013-12-18 06:22:00,28.0,27.0,-100.00,North,-999,-999.0,-999.0,95,0.00,,,-99.99,,2013-12-18 12:22:00,
2013-12-18 06:52:00,28.0,26.0,-100.00,North,-999,-999.0,-999.0,95,0.00,,,-99.99,,2013-12-18 12:52:00,
2013-12-18 07:22:00,27.0,26.0,-100.00,North,-999,-999.0,-999.0,95,0.00,,,-99.99,,2013-12-18 13:22:00,
2013-12-18 07:52:00,27.0,26.0,-100.00,North,-999,-999.0,-999.0,96,0.00,,,-99.99,,2013-12-18 13:52:00,
2013-12-18 08:21:00,29.0,28.0,-100.00,North,-999,-999.0,-999.0,96,0.00,,,-99.99,,2013-12-18 14:21:00,
2013-12-18 08:52:00,32.0,30.0,-100.00,North,-999,-999.0,-999.0,92,0.00,,,-99.99,,2013-12-18 14:52:00,
2013-12-18 09:22:00,35.0,32.0,-100.00,North,-999,-999.0,-999.0,88,0.00,,,-99.99,,2013-12-18 15:22:00,
2013-12-18 09:53:00,39.0,34.0,-100.00,North,-999,-999.0,-999.0,84,0.00,,,-99.99,,2013-12-18 15:53:00,
2013-12-18 10:23:00,43.0,37.0,-100.00,North,-999,-999.0,-999.0,80,0.00,,,-99.99,,2013-12-18 16:23:00,
2013-12-18 10:53:00,49.0,41.0,-100.00,North,-999,-999.0,-999.0,73,0.00,,,-99.99,,2013-12-18 16:53:00,
2013-12-18 11:22:00,54.0,44.0,-100.00,North,-999,-999.0,-999.0,69,-99.99,,,-99.99,,2013-12-18 17:22:00,
2013-12-18 11:52:00,58.0,46.0,-100.00,North,-999,-999.0,-999.0,64,0.00,,,-99.99,,2013-12-18 17:52:00,
2013-12-18 12:22:00,63.0,49.0,-100.00,North,-999,-999.0,-999.0,59,0.00,,,-99.99,,2013-12-18 18:22:00,
2013-12-18 12:52:00,66.0,48.0,-100.00,North,-999,-999.0,-999.0,52,0.00,,,-99.99,,2013-12-18 18:52:00,
2013-12-18 13:21:00,67.0,46.0,-100.00,North,-999,-999.0,-999.0,47,0.00,,,-99.99,,2013-12-18 19:21:00,
2013-12-18 13:52:00,68.0,45.0,-100.00,North,-999,-999.0,-999.0,45,0.00,,,-99.99,,2013-12-18 19:52:00,
2013-12-18 14:22:00,68.0,45.0,-100.00,North,-999,-999.0,-999.0,44,0.00,,,-99.99,,2013-12-18 20:22:00,
2013-12-18 14:52:00,68.0,44.0,-100.00,North,-999,-999.0,-999.0,42,0.00,,,-99.99,,2013-12-18 20:52:00,
2013-12-18 15:21:00,68.0,45.0,-100.00,North,-999,-999.0,-999.0,43,0.00,,,-99.99,,2013-12-18 21:21:00,
2013-12-18 15:53:00,68.0,45.0,-100.00,North,-999,-999.0,-999.0,43,0.00,,,-99.99,,2013-12-18 21:53:00,
2013-12-18 16:23:00,68.0,44.0,-100.00,North,-999,-999.0,-999.0,43,0.00,,,0.00,,2013-12-18 22:23:00,
2013-12-18 16:52:00,68.0,43.0,-100.00,North,-999,-999.0,-999.0,42,0.00,,,0.00,,2013-12-18 22:52:00,
2013-12-18 17:22:00,67.0,44.0,-100.00,North,-999,-999.0,-999.0,44,0.00,,,-99.99,,2013-12-18 23:22:00,
2013-12-18 17:53:00,64.0,44.0,-100.00,North,-999,-999.0,-999.0,47,0.00,,,-99.99,,2013-12-18 23:53:00,
2013-12-18 18:22:00,61.0,44.0,-100.00,North,-999,-999.0,-999.0,53,0.00,,,0.00,,2013-12-19 00:22:00,
2013-12-18 23:22:00,55.0,47.0,-100.00,North,-999,-999.0,-999.0,73,-99.99,,,0.00,,2013-12-19 05:22:00,
2013-12-18 23:52:00,57.0,48.0,-100.00,North,-999,-999.0,-999.0,73,0.00,,,0.00,,2013-12-19 05:52:00,